sensor_id;sensor_type;location;lat;lon;timestamp;temperature;humidity
50606;DHT22;36557;53.572;10.170;2023-04-01T00:00:27;10.00;99.90
50606;DHT22;36557;53.572;10.170;2023-04-01T00:02:53;10.00;99.90
50606;DHT22;36557;53.572;10.170;2023-04-01T00:05:18;10.00;99.90
50606;DHT22;36557;53.572;10.170;2023-04-01T00:07:44;10.00;99.90
50606;DHT22;36557;53.572;10.170;2023-04-01T00:10:12;9.90;99.90
50606;DHT22;36557;53.572;10.170;2023-04-01T00:12:39;9.90;99.90
50606;DHT22;36557;53.572;10.170;2023-04-01T00:15:07;9.90;99.90
50606;DHT22;36557;53.572;10.170;2023-04-01T00:17:34;9.90;99.90
50606;DHT22;36557;53.572;10.170;2023-04-01T00:20:00;9.90;99.90
50606;DHT22;36557;53.572;10.170;2023-04-01T00:22:26;9.90;99.90
50606;DHT22;36557;53.572;10.170;2023-04-01T00:24:53;9.90;99.90
50606;DHT22;36557;53.572;10.170;2023-04-01T00:27:19;9.90;99.90
50606;DHT22;36557;53.572;10.170;2023-04-01T00:29:46;9.90;99.90
50606;DHT22;36557;53.572;10.170;2023-04-01T00:32:12;9.90;99.90
50606;DHT22;36557;53.572;10.170;2023-04-01T00:34:37;9.90;99.90
50606;DHT22;36557;53.572;10.170;2023-04-01T00:37:05;9.80;99.90
50606;DHT22;36557;53.572;10.170;2023-04-01T00:39:32;9.80;99.90
50606;DHT22;36557;53.572;10.170;2023-04-01T00:41:59;9.80;99.90
50606;DHT22;36557;53.572;10.170;2023-04-01T00:44:30;9.80;99.90
50606;DHT22;36557;53.572;10.170;2023-04-01T00:46:58;9.80;99.90
50606;DHT22;36557;53.572;10.170;2023-04-01T00:49:45;9.80;99.90
50606;DHT22;36557;53.572;10.170;2023-04-01T00:52:15;9.80;99.90
50606;DHT22;36557;53.572;10.170;2023-04-01T00:54:42;9.70;99.90
50606;DHT22;36557;53.572;10.170;2023-04-01T00:57:18;9.80;99.90
50606;DHT22;36557;53.572;10.170;2023-04-01T00:59:49;9.70;99.90
50606;DHT22;36557;53.572;10.170;2023-04-01T01:02:18;9.80;99.90
50606;DHT22;36557;53.572;10.170;2023-04-01T01:04:45;9.70;99.90
50606;DHT22;36557;53.572;10.170;2023-04-01T01:15:25;9.70;99.90
50606;DHT22;36557;53.572;10.170;2023-04-01T01:26:24;9.60;99.90
50606;DHT22;36557;53.572;10.170;2023-04-01T01:31:57;9.60;99.90
50606;DHT22;36557;53.572;10.170;2023-04-01T01:34:55;9.60;99.90
50606;DHT22;36557;53.572;10.170;2023-04-01T01:37:25;9.60;99.90
50606;DHT22;36557;53.572;10.170;2023-04-01T01:40:01;9.60;99.90
50606;DHT22;36557;53.572;10.170;2023-04-01T01:42:29;9.60;99.90
50606;DHT22;36557;53.572;10.170;2023-04-01T01:44:57;9.60;99.90
50606;DHT22;36557;53.572;10.170;2023-04-01T01:47:25;9.60;99.90
50606;DHT22;36557;53.572;10.170;2023-04-01T01:49:53;9.60;99.90
50606;DHT22;36557;53.572;10.170;2023-04-01T01:52:21;9.50;99.90
50606;DHT22;36557;53.572;10.170;2023-04-01T01:54:52;9.60;99.90
50606;DHT22;36557;53.572;10.170;2023-04-01T01:57:22;9.50;99.90
50606;DHT22;36557;53.572;10.170;2023-04-01T01:59:49;9.60;99.90
50606;DHT22;36557;53.572;10.170;2023-04-01T02:02:17;9.50;99.90
50606;DHT22;36557;53.572;10.170;2023-04-01T02:04:45;9.60;99.90
50606;DHT22;36557;53.572;10.170;2023-04-01T02:07:16;9.50;99.90
50606;DHT22;36557;53.572;10.170;2023-04-01T02:09:44;9.50;99.90
50606;DHT22;36557;53.572;10.170;2023-04-01T02:12:12;9.60;99.90
50606;DHT22;36557;53.572;10.170;2023-04-01T02:15:00;9.50;99.90
50606;DHT22;36557;53.572;10.170;2023-04-01T02:17:29;9.50;99.90
50606;DHT22;36557;53.572;10.170;2023-04-01T02:22:49;9.50;99.90
50606;DHT22;36557;53.572;10.170;2023-04-01T02:25:27;9.50;99.90
50606;DHT22;36557;53.572;10.170;2023-04-01T02:27:55;9.50;99.90
50606;DHT22;36557;53.572;10.170;2023-04-01T02:30:22;9.50;99.90
50606;DHT22;36557;53.572;10.170;2023-04-01T02:32:48;9.50;99.90
50606;DHT22;36557;53.572;10.170;2023-04-01T02:35:16;9.50;99.90
50606;DHT22;36557;53.572;10.170;2023-04-01T02:37:44;9.50;99.90
50606;DHT22;36557;53.572;10.170;2023-04-01T02:40:13;9.50;99.90
50606;DHT22;36557;53.572;10.170;2023-04-01T02:42:39;9.50;99.90
50606;DHT22;36557;53.572;10.170;2023-04-01T02:45:05;9.50;99.90
50606;DHT22;36557;53.572;10.170;2023-04-01T02:47:31;9.50;99.90
50606;DHT22;36557;53.572;10.170;2023-04-01T02:49:57;9.50;99.90
50606;DHT22;36557;53.572;10.170;2023-04-01T02:52:26;9.40;99.90
50606;DHT22;36557;53.572;10.170;2023-04-01T02:54:52;9.50;99.90
50606;DHT22;36557;53.572;10.170;2023-04-01T02:57:18;9.50;99.90
50606;DHT22;36557;53.572;10.170;2023-04-01T02:59:45;9.50;99.90
50606;DHT22;36557;53.572;10.170;2023-04-01T03:02:10;9.50;99.90
50606;DHT22;36557;53.572;10.170;2023-04-01T03:04:36;9.50;99.90
50606;DHT22;36557;53.572;10.170;2023-04-01T03:07:02;9.50;99.90
50606;DHT22;36557;53.572;10.170;2023-04-01T03:09:28;9.50;99.90
50606;DHT22;36557;53.572;10.170;2023-04-01T03:11:54;9.50;99.90
50606;DHT22;36557;53.572;10.170;2023-04-01T03:14:20;9.50;99.90
50606;DHT22;36557;53.572;10.170;2023-04-01T03:16:45;9.50;99.90
50606;DHT22;36557;53.572;10.170;2023-04-01T03:19:11;9.50;99.90
50606;DHT22;36557;53.572;10.170;2023-04-01T03:21:37;9.50;99.90
50606;DHT22;36557;53.572;10.170;2023-04-01T03:24:03;9.50;99.90
50606;DHT22;36557;53.572;10.170;2023-04-01T03:26:29;9.40;99.90
50606;DHT22;36557;53.572;10.170;2023-04-01T03:28:55;9.40;99.90
50606;DHT22;36557;53.572;10.170;2023-04-01T03:31:21;9.50;99.90
50606;DHT22;36557;53.572;10.170;2023-04-01T03:33:47;9.40;99.90
50606;DHT22;36557;53.572;10.170;2023-04-01T03:36:13;9.50;99.90
50606;DHT22;36557;53.572;10.170;2023-04-01T03:38:42;9.50;99.90
50606;DHT22;36557;53.572;10.170;2023-04-01T03:41:14;9.40;99.90
50606;DHT22;36557;53.572;10.170;2023-04-01T03:43:40;9.40;99.90
50606;DHT22;36557;53.572;10.170;2023-04-01T03:46:06;9.40;99.90
50606;DHT22;36557;53.572;10.170;2023-04-01T03:48:31;9.40;99.90
50606;DHT22;36557;53.572;10.170;2023-04-01T03:50:57;9.40;99.90
50606;DHT22;36557;53.572;10.170;2023-04-01T03:53:23;9.40;99.90
50606;DHT22;36557;53.572;10.170;2023-04-01T03:55:49;9.40;99.90
50606;DHT22;36557;53.572;10.170;2023-04-01T03:58:16;9.40;99.90
50606;DHT22;36557;53.572;10.170;2023-04-01T04:00:42;9.40;99.90
50606;DHT22;36557;53.572;10.170;2023-04-01T04:03:08;9.40;99.90
50606;DHT22;36557;53.572;10.170;2023-04-01T04:05:34;9.40;99.90
50606;DHT22;36557;53.572;10.170;2023-04-01T04:08:00;9.40;99.90
50606;DHT22;36557;53.572;10.170;2023-04-01T04:10:26;9.40;99.90
50606;DHT22;36557;53.572;10.170;2023-04-01T04:12:52;9.40;99.90
50606;DHT22;36557;53.572;10.170;2023-04-01T04:15:18;9.40;99.90
50606;DHT22;36557;53.572;10.170;2023-04-01T04:17:44;9.40;99.90
50606;DHT22;36557;53.572;10.170;2023-04-01T04:20:11;9.40;99.90
50606;DHT22;36557;53.572;10.170;2023-04-01T04:22:37;9.40;99.90
50606;DHT22;36557;53.572;10.170;2023-04-01T04:25:03;9.40;99.90
50606;DHT22;36557;53.572;10.170;2023-04-01T04:27:28;9.40;99.90
50606;DHT22;36557;53.572;10.170;2023-04-01T04:29:55;9.40;99.90
50606;DHT22;36557;53.572;10.170;2023-04-01T04:32:21;9.40;99.90
50606;DHT22;36557;53.572;10.170;2023-04-01T04:34:46;9.40;99.90
50606;DHT22;36557;53.572;10.170;2023-04-01T04:37:12;9.40;99.90
50606;DHT22;36557;53.572;10.170;2023-04-01T04:39:38;9.40;99.90
50606;DHT22;36557;53.572;10.170;2023-04-01T04:42:04;9.40;99.90
50606;DHT22;36557;53.572;10.170;2023-04-01T04:44:30;9.40;99.90
50606;DHT22;36557;53.572;10.170;2023-04-01T04:46:56;9.40;99.90
50606;DHT22;36557;53.572;10.170;2023-04-01T04:49:22;9.40;99.90
50606;DHT22;36557;53.572;10.170;2023-04-01T04:51:47;9.40;99.90
50606;DHT22;36557;53.572;10.170;2023-04-01T04:54:13;9.30;99.90
50606;DHT22;36557;53.572;10.170;2023-04-01T04:56:39;9.40;99.90
50606;DHT22;36557;53.572;10.170;2023-04-01T04:59:05;9.40;99.90
50606;DHT22;36557;53.572;10.170;2023-04-01T05:01:31;9.40;99.90
50606;DHT22;36557;53.572;10.170;2023-04-01T05:03:59;9.40;99.90
50606;DHT22;36557;53.572;10.170;2023-04-01T05:06:24;9.40;99.90
50606;DHT22;36557;53.572;10.170;2023-04-01T05:08:51;9.40;99.90
50606;DHT22;36557;53.572;10.170;2023-04-01T05:11:19;9.40;99.90
50606;DHT22;36557;53.572;10.170;2023-04-01T05:13:46;9.40;99.90
50606;DHT22;36557;53.572;10.170;2023-04-01T05:16:14;9.30;99.90
50606;DHT22;36557;53.572;10.170;2023-04-01T05:18:40;9.40;99.90
50606;DHT22;36557;53.572;10.170;2023-04-01T05:23:34;8.80;99.90
50606;DHT22;36557;53.572;10.170;2023-04-01T05:26:18;8.70;99.90
50606;DHT22;36557;53.572;10.170;2023-04-01T05:28:43;8.70;99.90
50606;DHT22;36557;53.572;10.170;2023-04-01T05:31:09;8.50;99.90
50606;DHT22;36557;53.572;10.170;2023-04-01T05:33:35;8.50;99.90
50606;DHT22;36557;53.572;10.170;2023-04-01T05:38:34;8.40;99.90
50606;DHT22;36557;53.572;10.170;2023-04-01T05:41:01;8.30;99.90
50606;DHT22;36557;53.572;10.170;2023-04-01T05:43:27;8.20;99.90
50606;DHT22;36557;53.572;10.170;2023-04-01T05:45:53;8.10;99.90
50606;DHT22;36557;53.572;10.170;2023-04-01T05:48:19;8.10;99.90
50606;DHT22;36557;53.572;10.170;2023-04-01T05:50:44;8.10;99.90
50606;DHT22;36557;53.572;10.170;2023-04-01T05:53:10;8.20;99.90
50606;DHT22;36557;53.572;10.170;2023-04-01T05:55:36;8.10;99.90
50606;DHT22;36557;53.572;10.170;2023-04-01T05:58:02;8.00;99.90
50606;DHT22;36557;53.572;10.170;2023-04-01T06:00:27;7.90;99.90
50606;DHT22;36557;53.572;10.170;2023-04-01T06:02:53;7.90;99.90
50606;DHT22;36557;53.572;10.170;2023-04-01T06:05:24;8.00;99.90
50606;DHT22;36557;53.572;10.170;2023-04-01T06:07:58;8.00;99.90
50606;DHT22;36557;53.572;10.170;2023-04-01T06:24:35;7.80;99.90
50606;DHT22;36557;53.572;10.170;2023-04-01T06:35:20;7.40;99.90
50606;DHT22;36557;53.572;10.170;2023-04-01T06:38:48;7.50;99.90
50606;DHT22;36557;53.572;10.170;2023-04-01T06:52:40;7.20;99.90
50606;DHT22;36557;53.572;10.170;2023-04-01T06:54:53;7.20;99.90
50606;DHT22;36557;53.572;10.170;2023-04-01T06:57:48;7.30;99.90
50606;DHT22;36557;53.572;10.170;2023-04-01T07:00:36;7.20;99.90
50606;DHT22;36557;53.572;10.170;2023-04-01T07:03:21;7.30;99.90
50606;DHT22;36557;53.572;10.170;2023-04-01T07:05:48;7.40;99.90
50606;DHT22;36557;53.572;10.170;2023-04-01T07:08:21;7.30;99.90
50606;DHT22;36557;53.572;10.170;2023-04-01T07:13:53;7.00;99.90
50606;DHT22;36557;53.572;10.170;2023-04-01T07:18:52;7.20;99.90
50606;DHT22;36557;53.572;10.170;2023-04-01T07:21:27;7.00;99.90
50606;DHT22;36557;53.572;10.170;2023-04-01T07:23:58;7.10;99.90
50606;DHT22;36557;53.572;10.170;2023-04-01T07:26:25;7.00;99.90
50606;DHT22;36557;53.572;10.170;2023-04-01T07:28:53;7.10;99.90
50606;DHT22;36557;53.572;10.170;2023-04-01T07:31:25;7.10;99.90
50606;DHT22;36557;53.572;10.170;2023-04-01T07:34:23;7.00;99.90
50606;DHT22;36557;53.572;10.170;2023-04-01T07:45:18;7.00;99.90
50606;DHT22;36557;53.572;10.170;2023-04-01T07:55:54;7.20;99.90
50606;DHT22;36557;53.572;10.170;2023-04-01T08:01:29;7.00;99.90
50606;DHT22;36557;53.572;10.170;2023-04-01T08:06:51;7.10;99.90
50606;DHT22;36557;53.572;10.170;2023-04-01T08:12:11;7.00;99.90
50606;DHT22;36557;53.572;10.170;2023-04-01T08:17:59;6.80;99.90
50606;DHT22;36557;53.572;10.170;2023-04-01T08:23:44;6.80;99.90
50606;DHT22;36557;53.572;10.170;2023-04-01T08:29:02;6.90;99.90
50606;DHT22;36557;53.572;10.170;2023-04-01T08:31:33;6.80;99.90
50606;DHT22;36557;53.572;10.170;2023-04-01T08:39:09;7.00;99.90
50606;DHT22;36557;53.572;10.170;2023-04-01T08:50:30;7.00;99.90
50606;DHT22;36557;53.572;10.170;2023-04-01T09:04:24;7.00;99.90
50606;DHT22;36557;53.572;10.170;2023-04-01T09:24:06;7.30;99.90
50606;DHT22;36557;53.572;10.170;2023-04-01T09:46:20;7.30;99.90
50606;DHT22;36557;53.572;10.170;2023-04-01T09:52:04;7.60;99.90
50606;DHT22;36557;53.572;10.170;2023-04-01T10:19:45;7.60;99.90
50606;DHT22;36557;53.572;10.170;2023-04-01T10:22:28;7.50;99.90
50606;DHT22;36557;53.572;10.170;2023-04-01T10:44:04;7.60;99.90
50606;DHT22;36557;53.572;10.170;2023-04-01T10:47:01;7.50;99.90
50606;DHT22;36557;53.572;10.170;2023-04-01T10:55:03;7.50;99.90
50606;DHT22;36557;53.572;10.170;2023-04-01T11:00:36;7.50;99.90
50606;DHT22;36557;53.572;10.170;2023-04-01T11:42:43;7.10;99.90
50606;DHT22;36557;53.572;10.170;2023-04-01T12:10:11;6.90;99.90
50606;DHT22;36557;53.572;10.170;2023-04-01T12:12:55;6.80;99.90
50606;DHT22;36557;53.572;10.170;2023-04-01T12:18:42;6.80;99.90
50606;DHT22;36557;53.572;10.170;2023-04-01T12:33:15;6.90;99.90
50606;DHT22;36557;53.572;10.170;2023-04-01T12:42:36;6.40;99.90
50606;DHT22;36557;53.572;10.170;2023-04-01T12:56:12;6.50;99.90
50606;DHT22;36557;53.572;10.170;2023-04-01T13:06:44;6.50;99.90
50606;DHT22;36557;53.572;10.170;2023-04-01T13:09:25;6.50;99.90
50606;DHT22;36557;53.572;10.170;2023-04-01T13:15:25;6.50;99.90
50606;DHT22;36557;53.572;10.170;2023-04-01T13:20:56;6.30;99.90
50606;DHT22;36557;53.572;10.170;2023-04-01T13:26:13;6.30;99.90
50606;DHT22;36557;53.572;10.170;2023-04-01T13:32:06;6.40;99.90
50606;DHT22;36557;53.572;10.170;2023-04-01T13:42:57;6.00;99.90
50606;DHT22;36557;53.572;10.170;2023-04-01T14:01:51;5.90;99.90
50606;DHT22;36557;53.572;10.170;2023-04-01T14:10:31;6.20;99.90
50606;DHT22;36557;53.572;10.170;2023-04-01T14:13:28;6.00;99.90
50606;DHT22;36557;53.572;10.170;2023-04-01T14:21:59;6.10;99.90
50606;DHT22;36557;53.572;10.170;2023-04-01T14:27:37;6.10;99.90
50606;DHT22;36557;53.572;10.170;2023-04-01T14:32:57;5.90;99.90
50606;DHT22;36557;53.572;10.170;2023-04-01T14:36:14;6.10;99.90
50606;DHT22;36557;53.572;10.170;2023-04-01T14:41:59;6.00;99.90
50606;DHT22;36557;53.572;10.170;2023-04-01T14:45:12;6.00;99.90
50606;DHT22;36557;53.572;10.170;2023-04-01T14:50:45;5.90;99.90
50606;DHT22;36557;53.572;10.170;2023-04-01T14:53:25;5.70;99.90
50606;DHT22;36557;53.572;10.170;2023-04-01T14:55:57;5.60;99.90
50606;DHT22;36557;53.572;10.170;2023-04-01T14:58:45;5.70;99.90
50606;DHT22;36557;53.572;10.170;2023-04-01T15:06:55;5.70;99.90
50606;DHT22;36557;53.572;10.170;2023-04-01T15:16:01;5.50;99.90
50606;DHT22;36557;53.572;10.170;2023-04-01T15:24:20;5.50;99.90
50606;DHT22;36557;53.572;10.170;2023-04-01T15:27:10;5.40;99.90
50606;DHT22;36557;53.572;10.170;2023-04-01T15:35:34;5.30;99.90
50606;DHT22;36557;53.572;10.170;2023-04-01T15:38:52;5.30;99.90
50606;DHT22;36557;53.572;10.170;2023-04-01T15:43:48;5.20;99.90
50606;DHT22;36557;53.572;10.170;2023-04-01T15:49:42;5.20;99.90
50606;DHT22;36557;53.572;10.170;2023-04-01T15:52:40;5.20;99.90
50606;DHT22;36557;53.572;10.170;2023-04-01T15:55:31;5.20;99.90
50606;DHT22;36557;53.572;10.170;2023-04-01T16:17:12;4.90;99.90
50606;DHT22;36557;53.572;10.170;2023-04-01T16:19:56;5.00;99.90
50606;DHT22;36557;53.572;10.170;2023-04-01T16:38:19;4.90;99.90
50606;DHT22;36557;53.572;10.170;2023-04-01T16:43:39;4.90;99.90
50606;DHT22;36557;53.572;10.170;2023-04-01T16:46:32;4.90;99.90
50606;DHT22;36557;53.572;10.170;2023-04-01T16:54:14;4.80;99.90
50606;DHT22;36557;53.572;10.170;2023-04-01T16:56:47;4.70;99.90
50606;DHT22;36557;53.572;10.170;2023-04-01T16:59:43;4.80;99.90
50606;DHT22;36557;53.572;10.170;2023-04-01T17:02:18;4.70;99.90
50606;DHT22;36557;53.572;10.170;2023-04-01T17:04:52;4.60;99.90
50606;DHT22;36557;53.572;10.170;2023-04-01T17:10:31;4.70;99.90
50606;DHT22;36557;53.572;10.170;2023-04-01T17:15:47;4.80;99.90
50606;DHT22;36557;53.572;10.170;2023-04-01T17:21:45;4.50;99.90
50606;DHT22;36557;53.572;10.170;2023-04-01T17:27:40;4.60;99.90
50606;DHT22;36557;53.572;10.170;2023-04-01T17:30:09;4.60;99.90
50606;DHT22;36557;53.572;10.170;2023-04-01T17:35:43;4.60;99.90
50606;DHT22;36557;53.572;10.170;2023-04-01T17:43:38;4.40;99.90
50606;DHT22;36557;53.572;10.170;2023-04-01T17:51:43;4.50;99.90
50606;DHT22;36557;53.572;10.170;2023-04-01T17:57:09;4.50;99.90
50606;DHT22;36557;53.572;10.170;2023-04-01T18:00:29;4.50;99.90
50606;DHT22;36557;53.572;10.170;2023-04-01T18:08:26;4.40;99.90
50606;DHT22;36557;53.572;10.170;2023-04-01T18:16:36;4.30;99.90
50606;DHT22;36557;53.572;10.170;2023-04-01T18:21:50;4.20;99.90
50606;DHT22;36557;53.572;10.170;2023-04-01T18:24:28;4.20;99.90
50606;DHT22;36557;53.572;10.170;2023-04-01T18:27:16;4.10;99.90
50606;DHT22;36557;53.572;10.170;2023-04-01T18:30:06;4.10;99.90
50606;DHT22;36557;53.572;10.170;2023-04-01T18:38:44;4.10;99.90
50606;DHT22;36557;53.572;10.170;2023-04-01T18:41:19;4.10;99.90
50606;DHT22;36557;53.572;10.170;2023-04-01T18:44:13;4.00;99.90
50606;DHT22;36557;53.572;10.170;2023-04-01T18:52:36;4.00;99.90
50606;DHT22;36557;53.572;10.170;2023-04-01T18:58:05;4.00;99.90
50606;DHT22;36557;53.572;10.170;2023-04-01T19:00:44;4.00;99.90
50606;DHT22;36557;53.572;10.170;2023-04-01T19:03:25;3.90;99.90
50606;DHT22;36557;53.572;10.170;2023-04-01T19:06:00;3.80;99.90
50606;DHT22;36557;53.572;10.170;2023-04-01T19:08:35;3.90;99.90
50606;DHT22;36557;53.572;10.170;2023-04-01T19:14:42;3.80;99.90
50606;DHT22;36557;53.572;10.170;2023-04-01T19:22:27;3.80;99.90
50606;DHT22;36557;53.572;10.170;2023-04-01T19:25:29;3.90;99.90
50606;DHT22;36557;53.572;10.170;2023-04-01T19:27:50;3.80;99.90
50606;DHT22;36557;53.572;10.170;2023-04-01T19:59:39;3.50;99.90
50606;DHT22;36557;53.572;10.170;2023-04-01T20:04:44;3.40;99.90
50606;DHT22;36557;53.572;10.170;2023-04-01T20:10:20;3.30;99.90
50606;DHT22;36557;53.572;10.170;2023-04-01T20:15:46;3.30;99.90
50606;DHT22;36557;53.572;10.170;2023-04-01T20:18:19;3.20;99.90
50606;DHT22;36557;53.572;10.170;2023-04-01T20:20:59;3.10;99.90
50606;DHT22;36557;53.572;10.170;2023-04-01T20:23:43;3.00;99.90
50606;DHT22;36557;53.572;10.170;2023-04-01T20:26:12;3.00;99.90
50606;DHT22;36557;53.572;10.170;2023-04-01T20:28:46;3.00;99.90
50606;DHT22;36557;53.572;10.170;2023-04-01T20:31:33;2.90;99.90
50606;DHT22;36557;53.572;10.170;2023-04-01T20:50:57;2.60;99.90
50606;DHT22;36557;53.572;10.170;2023-04-01T21:10:40;2.30;99.90
50606;DHT22;36557;53.572;10.170;2023-04-01T21:13:15;2.30;99.90
50606;DHT22;36557;53.572;10.170;2023-04-01T21:26:25;2.20;99.90
50606;DHT22;36557;53.572;10.170;2023-04-01T21:29:18;2.20;99.90
50606;DHT22;36557;53.572;10.170;2023-04-01T21:32:17;2.20;99.90
50606;DHT22;36557;53.572;10.170;2023-04-01T21:51:11;2.00;99.90
50606;DHT22;36557;53.572;10.170;2023-04-01T22:12:32;1.80;99.90
50606;DHT22;36557;53.572;10.170;2023-04-01T22:26:44;1.70;99.90
50606;DHT22;36557;53.572;10.170;2023-04-01T22:29:26;1.70;99.90
50606;DHT22;36557;53.572;10.170;2023-04-01T22:32:05;1.70;99.90
50606;DHT22;36557;53.572;10.170;2023-04-01T22:34:50;1.70;99.90
50606;DHT22;36557;53.572;10.170;2023-04-01T22:37:29;1.70;99.90
50606;DHT22;36557;53.572;10.170;2023-04-01T22:40:17;1.60;99.90
50606;DHT22;36557;53.572;10.170;2023-04-01T22:42:46;1.60;99.90
50606;DHT22;36557;53.572;10.170;2023-04-01T22:46:26;1.60;99.90
50606;DHT22;36557;53.572;10.170;2023-04-01T22:48:26;1.60;99.90
50606;DHT22;36557;53.572;10.170;2023-04-01T22:51:11;1.50;99.90
50606;DHT22;36557;53.572;10.170;2023-04-01T22:56:27;1.50;99.90
50606;DHT22;36557;53.572;10.170;2023-04-01T23:01:41;1.50;99.90
50606;DHT22;36557;53.572;10.170;2023-04-01T23:04:10;1.40;99.90
50606;DHT22;36557;53.572;10.170;2023-04-01T23:06:41;1.40;99.90
50606;DHT22;36557;53.572;10.170;2023-04-01T23:09:19;1.40;99.90
50606;DHT22;36557;53.572;10.170;2023-04-01T23:11:55;1.40;99.90
50606;DHT22;36557;53.572;10.170;2023-04-01T23:19:29;1.40;99.90
50606;DHT22;36557;53.572;10.170;2023-04-01T23:22:20;1.30;99.90
50606;DHT22;36557;53.572;10.170;2023-04-01T23:24:55;1.30;99.90
50606;DHT22;36557;53.572;10.170;2023-04-01T23:27:39;1.40;99.90
50606;DHT22;36557;53.572;10.170;2023-04-01T23:30:45;1.30;99.90
50606;DHT22;36557;53.572;10.170;2023-04-01T23:36:11;1.20;99.90
50606;DHT22;36557;53.572;10.170;2023-04-01T23:38:40;1.20;99.90
50606;DHT22;36557;53.572;10.170;2023-04-01T23:41:26;1.20;99.90
50606;DHT22;36557;53.572;10.170;2023-04-01T23:44:13;1.30;99.90
50606;DHT22;36557;53.572;10.170;2023-04-01T23:46:40;1.30;99.90
50606;DHT22;36557;53.572;10.170;2023-04-01T23:51:49;1.20;99.90
50606;DHT22;36557;53.572;10.170;2023-04-01T23:54:24;1.30;99.90
50606;DHT22;36557;53.572;10.170;2023-04-01T23:56:54;1.30;99.90
50606;DHT22;36557;53.572;10.170;2023-04-01T23:59:29;1.20;99.90
